createdAt,value
2019-01-31T00:00:13.796Z,-1.20
2019-01-31T00:02:54.130Z,-1.20
2019-01-31T00:05:37.663Z,-1.20
2019-01-31T00:08:12.129Z,-1.20
2019-01-31T00:10:43.622Z,-1.20
2019-01-31T00:13:15.103Z,-1.20
2019-01-31T00:15:54.778Z,-1.20
2019-01-31T00:18:26.275Z,-1.20
2019-01-31T00:21:05.983Z,-1.20
2019-01-31T00:23:46.322Z,-1.20
2019-01-31T00:26:20.624Z,-1.20
2019-01-31T00:29:06.818Z,-1.20
2019-01-31T00:32:09.862Z,-1.10
2019-01-31T00:34:59.242Z,-1.10
2019-01-31T00:38:01.891Z,-1.10
2019-01-31T00:40:35.958Z,-1.10
2019-01-31T00:43:07.437Z,-1.00
2019-01-31T00:45:59.896Z,-1.10
2019-01-31T00:48:31.370Z,-1.00
2019-01-31T00:51:20.773Z,-1.00
2019-01-31T00:54:12.966Z,-1.00
2019-01-31T00:56:56.089Z,-1.00
2019-01-31T00:59:30.143Z,-1.00
2019-01-31T01:02:24.147Z,-1.00
2019-01-31T01:04:55.655Z,-1.00
2019-01-31T01:07:38.715Z,-1.00
2019-01-31T01:10:25.048Z,-1.00
2019-01-31T01:13:05.127Z,-1.00
2019-01-31T01:15:42.497Z,-1.00
2019-01-31T01:18:19.947Z,-1.00
2019-01-31T01:21:03.515Z,-1.00
2019-01-31T01:23:37.915Z,-1.00
2019-01-31T01:26:09.457Z,-1.00
2019-01-31T01:28:49.757Z,-0.90
2019-01-31T01:31:29.768Z,-0.90
2019-01-31T01:34:13.181Z,-0.90
2019-01-31T01:36:47.542Z,-0.90
2019-01-31T01:39:30.678Z,-0.90
2019-01-31T01:42:13.882Z,-0.80
2019-01-31T01:44:51.301Z,-0.80
2019-01-31T01:47:25.443Z,-0.80
2019-01-31T01:50:02.679Z,-0.80
2019-01-31T01:52:42.873Z,-0.70
2019-01-31T01:55:32.302Z,-0.70
2019-01-31T01:58:06.773Z,-0.70
2019-01-31T02:00:50.272Z,-0.70
2019-01-31T02:03:24.346Z,-0.60
2019-01-31T02:05:58.810Z,-0.60
2019-01-31T02:08:54.281Z,-0.60
2019-01-31T02:11:45.211Z,-0.60
2019-01-31T02:14:19.523Z,-0.60
2019-01-31T02:17:05.810Z,-0.50
2019-01-31T02:20:01.072Z,-0.50
2019-01-31T02:22:50.198Z,-0.50
2019-01-31T02:25:24.597Z,-0.50
2019-01-31T02:28:19.429Z,-0.50
2019-01-31T02:30:56.742Z,-0.50
2019-01-31T02:33:30.779Z,-0.40
2019-01-31T02:36:20.231Z,-0.40
2019-01-31T02:39:00.279Z,-0.50
2019-01-31T02:41:49.846Z,-0.50
2019-01-31T02:44:27.024Z,-0.50
2019-01-31T02:47:16.332Z,-0.50
2019-01-31T02:49:59.691Z,-0.50
2019-01-31T02:52:33.925Z,-0.50
2019-01-31T02:55:23.090Z,-0.50
2019-01-31T02:58:03.188Z,-0.60
2019-01-31T03:00:34.697Z,-0.60
2019-01-31T03:03:20.771Z,-0.50
2019-01-31T03:05:52.269Z,-0.60
2019-01-31T03:08:35.738Z,-0.60
2019-01-31T03:11:10.138Z,-0.60
2019-01-31T03:13:53.121Z,-0.60
2019-01-31T03:16:27.151Z,-0.60
2019-01-31T03:19:13.689Z,-0.60
2019-01-31T03:22:08.469Z,-0.70
2019-01-31T03:24:42.618Z,-0.70
2019-01-31T03:27:17.052Z,-0.70
2019-01-31T03:30:04.795Z,-0.70
2019-01-31T03:32:42.077Z,-0.70
2019-01-31T03:35:32.546Z,-0.70
2019-01-31T03:38:12.635Z,-0.70
2019-01-31T03:40:44.160Z,-0.70
2019-01-31T03:43:24.491Z,-0.80
2019-01-31T03:46:22.681Z,-0.80
2019-01-31T03:48:59.637Z,-0.80
2019-01-31T03:51:31.154Z,-0.70
2019-01-31T03:54:11.151Z,-0.80
2019-01-31T03:57:00.494Z,-0.80
2019-01-31T03:59:31.561Z,-0.80
2019-01-31T04:02:14.895Z,-0.80
2019-01-31T04:05:00.563Z,-0.80
2019-01-31T04:07:28.975Z,-0.80
2019-01-31T04:09:57.383Z,-0.80
2019-01-31T04:12:25.821Z,-0.80
2019-01-31T04:14:54.464Z,-0.80
2019-01-31T04:17:22.874Z,-0.80
2019-01-31T04:19:51.278Z,-0.70
2019-01-31T04:22:19.700Z,-0.70
2019-01-31T04:24:48.147Z,-0.70
2019-01-31T04:27:16.572Z,-0.70
2019-01-31T04:29:44.970Z,-0.70
2019-01-31T04:32:13.395Z,-0.70
2019-01-31T04:34:41.820Z,-0.70
2019-01-31T04:37:10.239Z,-0.60
2019-01-31T04:39:38.650Z,-0.60
2019-01-31T04:42:07.069Z,-0.60
2019-01-31T04:44:35.461Z,-0.60
2019-01-31T04:47:03.882Z,-0.60
2019-01-31T04:49:32.374Z,-0.60
2019-01-31T04:52:00.787Z,-0.60
2019-01-31T04:54:29.210Z,-0.50
2019-01-31T04:56:57.651Z,-0.60
2019-01-31T04:59:26.057Z,-0.50
2019-01-31T05:01:54.476Z,-0.50
2019-01-31T05:04:22.918Z,-0.50
2019-01-31T05:06:51.363Z,-0.50
2019-01-31T05:09:19.793Z,-0.50
2019-01-31T05:11:48.219Z,-0.50
2019-01-31T05:14:16.643Z,-0.50
2019-01-31T05:16:45.311Z,-0.50
2019-01-31T05:19:13.736Z,-0.50
2019-01-31T05:21:42.146Z,-0.50
2019-01-31T05:24:10.585Z,-0.50
2019-01-31T05:26:38.992Z,-0.50
2019-01-31T05:29:07.394Z,-0.50
2019-01-31T05:31:35.837Z,-0.40
2019-01-31T05:34:04.255Z,-0.50
2019-01-31T05:36:32.691Z,-0.40
2019-01-31T05:39:01.106Z,-0.40
2019-01-31T05:41:29.506Z,-0.40
2019-01-31T05:43:57.935Z,-0.40
2019-01-31T05:46:26.343Z,-0.40
2019-01-31T05:48:54.766Z,-0.40
2019-01-31T05:51:23.169Z,-0.40
2019-01-31T05:53:51.586Z,-0.40
2019-01-31T05:56:19.993Z,-0.40
2019-01-31T05:58:48.413Z,-0.40
2019-01-31T06:01:16.822Z,-0.40
2019-01-31T06:03:45.274Z,-0.40
2019-01-31T06:06:13.682Z,-0.40
2019-01-31T06:08:42.125Z,-0.40
2019-01-31T06:11:10.524Z,-0.30
2019-01-31T06:13:39.010Z,-0.30
2019-01-31T06:16:07.423Z,-0.30
2019-01-31T06:18:35.962Z,-0.30
2019-01-31T06:21:04.378Z,-0.30
2019-01-31T06:23:32.816Z,-0.30
2019-01-31T06:26:01.227Z,-0.20
2019-01-31T06:28:29.654Z,-0.20
2019-01-31T06:30:58.070Z,-0.20
2019-01-31T06:33:28.549Z,-0.20
2019-01-31T06:35:56.655Z,-0.20
2019-01-31T06:38:25.325Z,-0.10
2019-01-31T06:40:53.807Z,-0.10
2019-01-31T06:43:22.287Z,-0.20
2019-01-31T06:45:50.700Z,-0.10
2019-01-31T06:48:19.175Z,-0.10
2019-01-31T06:50:47.582Z,-0.10
2019-01-31T06:53:16.035Z,-0.10
2019-01-31T06:55:44.458Z,-0.10
2019-01-31T06:58:12.896Z,-0.10
2019-01-31T07:00:41.378Z,0.40
2019-01-31T07:03:09.790Z,0.00
2019-01-31T07:05:38.247Z,0.00
2019-01-31T07:08:06.788Z,0.00
2019-01-31T07:10:35.198Z,0.00
2019-01-31T07:13:03.776Z,0.00
2019-01-31T07:15:32.218Z,0.10
2019-01-31T07:18:01.126Z,0.00
2019-01-31T07:20:29.559Z,0.00
2019-01-31T07:22:57.982Z,0.00
2019-01-31T07:25:26.511Z,0.00
2019-01-31T07:27:54.983Z,0.00
2019-01-31T07:30:26.686Z,0.10
2019-01-31T07:32:54.000Z,0.10
2019-01-31T07:35:22.430Z,0.10
2019-01-31T07:37:53.004Z,0.10
2019-01-31T07:40:22.760Z,0.10
2019-01-31T07:42:51.236Z,0.10
2019-01-31T07:45:24.797Z,0.10
2019-01-31T07:47:53.203Z,0.20
2019-01-31T07:50:21.885Z,0.10
2019-01-31T07:52:50.674Z,0.20
2019-01-31T07:55:19.656Z,0.20
2019-01-31T07:57:48.199Z,0.10
2019-01-31T08:00:24.355Z,0.10
2019-01-31T08:02:53.035Z,0.10
2019-01-31T08:05:23.417Z,0.10
2019-01-31T08:07:53.913Z,0.00
2019-01-31T08:10:25.152Z,0.00
2019-01-31T08:12:53.663Z,-0.10
2019-01-31T08:15:22.110Z,-0.10
2019-01-31T08:17:50.530Z,-0.10
2019-01-31T08:20:20.194Z,-0.10
2019-01-31T08:22:48.700Z,-0.10
2019-01-31T08:25:20.191Z,-0.10
2019-01-31T08:27:49.929Z,-0.10
2019-01-31T08:30:21.150Z,-0.10
2019-01-31T08:32:49.584Z,-0.20
2019-01-31T08:35:18.483Z,-0.10
2019-01-31T08:37:46.946Z,0.30
2019-01-31T08:40:15.466Z,0.90
2019-01-31T08:42:43.891Z,1.50
2019-01-31T08:45:14.082Z,1.80
2019-01-31T08:47:42.956Z,1.60
2019-01-31T08:50:15.351Z,1.30
2019-01-31T08:52:43.780Z,1.00
2019-01-31T08:55:12.380Z,0.80
2019-01-31T08:57:40.886Z,0.70
2019-01-31T09:00:21.158Z,0.60
2019-01-31T09:02:49.615Z,0.50
2019-01-31T09:05:18.171Z,0.40
2019-01-31T09:07:46.663Z,0.30
2019-01-31T09:10:18.209Z,0.30
2019-01-31T09:12:46.674Z,0.40
2019-01-31T09:15:17.922Z,0.40
2019-01-31T09:17:46.362Z,0.40
2019-01-31T09:20:20.700Z,0.40
2019-01-31T09:22:52.210Z,0.40
2019-01-31T09:25:32.480Z,0.40
2019-01-31T09:28:09.781Z,0.40
2019-01-31T09:30:57.869Z,0.40
2019-01-31T09:33:41.030Z,0.30
2019-01-31T09:36:29.002Z,0.30
2019-01-31T09:39:09.538Z,0.20
2019-01-31T09:41:58.766Z,0.20
2019-01-31T09:44:42.215Z,0.10
2019-01-31T09:47:16.399Z,0.10
2019-01-31T09:49:52.963Z,0.10
2019-01-31T09:52:48.232Z,0.10
2019-01-31T09:55:53.901Z,0.10
2019-01-31T09:58:43.009Z,0.20
2019-01-31T10:01:17.081Z,0.20
2019-01-31T10:04:06.358Z,0.20
2019-01-31T10:07:12.285Z,0.30
2019-01-31T10:09:43.927Z,0.30
2019-01-31T10:12:24.205Z,0.30
2019-01-31T10:14:55.670Z,0.30
2019-01-31T10:17:45.338Z,0.30
2019-01-31T10:20:22.585Z,0.40
2019-01-31T10:23:18.921Z,0.30
2019-01-31T10:25:53.264Z,0.20
2019-01-31T10:28:25.804Z,0.20
2019-01-31T10:31:24.342Z,0.20
2019-01-31T10:34:18.139Z,0.20
2019-01-31T10:37:09.871Z,0.20
2019-01-31T10:39:44.298Z,0.20
2019-01-31T10:42:32.047Z,0.20
2019-01-31T10:45:30.563Z,0.30
2019-01-31T10:48:20.062Z,0.30
2019-01-31T10:50:58.633Z,0.40
2019-01-31T10:53:44.966Z,0.50
2019-01-31T10:56:35.489Z,0.50
2019-01-31T10:59:12.601Z,0.50
2019-01-31T11:02:15.270Z,0.30
2019-01-31T11:05:13.685Z,0.30
2019-01-31T11:08:04.459Z,0.30
2019-01-31T11:10:41.552Z,0.40
2019-01-31T11:13:13.067Z,0.30
2019-01-31T11:15:44.601Z,0.30
2019-01-31T11:18:18.616Z,0.40
2019-01-31T11:21:08.054Z,0.40
2019-01-31T11:23:39.565Z,0.50
2019-01-31T11:26:22.653Z,0.60
2019-01-31T11:29:11.870Z,0.60
2019-01-31T11:31:58.147Z,0.70
2019-01-31T11:34:41.475Z,0.70
2019-01-31T11:37:15.946Z,0.70
2019-01-31T11:40:05.046Z,0.70
2019-01-31T11:42:42.232Z,0.70
2019-01-31T11:45:38.884Z,0.60
2019-01-31T11:48:16.097Z,0.60
2019-01-31T11:51:20.384Z,0.60
2019-01-31T11:53:54.847Z,0.60
2019-01-31T11:56:34.908Z,0.70
2019-01-31T11:59:05.695Z,0.70
2019-01-31T12:01:34.123Z,0.70
2019-01-31T12:04:05.597Z,0.80
2019-01-31T12:06:34.934Z,0.80
2019-01-31T12:09:04.912Z,0.90
2019-01-31T12:11:33.424Z,0.90
2019-01-31T12:14:01.846Z,0.90
2019-01-31T12:16:30.286Z,0.90
2019-01-31T12:18:58.699Z,0.80
2019-01-31T12:21:27.213Z,0.70
2019-01-31T12:23:55.677Z,0.70
2019-01-31T12:26:24.273Z,0.60
2019-01-31T12:28:52.686Z,0.60
2019-01-31T12:31:21.129Z,0.70
2019-01-31T12:33:49.555Z,0.80
2019-01-31T12:36:17.989Z,0.90
2019-01-31T12:38:46.410Z,1.00
2019-01-31T12:41:14.854Z,1.10
2019-01-31T12:43:43.329Z,1.10
2019-01-31T12:46:11.764Z,1.30
2019-01-31T12:48:40.197Z,1.50
2019-01-31T12:51:08.643Z,1.60
2019-01-31T12:53:37.061Z,1.90
2019-01-31T12:56:05.592Z,2.20
2019-01-31T12:58:34.086Z,2.50
2019-01-31T13:01:02.858Z,2.60
2019-01-31T13:03:31.303Z,2.40
2019-01-31T13:05:59.726Z,2.40
2019-01-31T13:08:28.174Z,2.30
2019-01-31T13:10:59.586Z,2.10
2019-01-31T13:13:27.986Z,2.10
2019-01-31T13:15:56.594Z,2.10
2019-01-31T13:18:25.442Z,1.90
2019-01-31T13:20:53.895Z,1.80
2019-01-31T13:23:22.309Z,1.80
2019-01-31T13:25:50.731Z,1.70
2019-01-31T13:28:19.163Z,1.90
2019-01-31T13:30:47.577Z,2.00
2019-01-31T13:33:16.231Z,2.20
2019-01-31T13:35:44.795Z,2.20
2019-01-31T13:38:14.151Z,2.10
2019-01-31T13:40:42.670Z,2.00
2019-01-31T13:43:11.082Z,1.90
2019-01-31T13:45:39.615Z,1.70
2019-01-31T13:48:09.458Z,1.60
2019-01-31T13:50:37.866Z,1.70
2019-01-31T13:53:07.522Z,1.60
2019-01-31T13:55:36.076Z,1.50
2019-01-31T13:58:04.824Z,1.60
2019-01-31T14:00:33.306Z,1.60
2019-01-31T14:03:01.747Z,1.70
2019-01-31T14:05:30.428Z,1.80
2019-01-31T14:07:58.929Z,2.00
2019-01-31T14:10:27.708Z,2.00
2019-01-31T14:12:56.199Z,2.10
2019-01-31T14:15:33.462Z,2.00
2019-01-31T14:18:00.272Z,2.00
2019-01-31T14:20:29.315Z,1.80
2019-01-31T14:22:57.878Z,1.70
2019-01-31T14:25:26.299Z,1.60
2019-01-31T14:27:54.788Z,1.60
2019-01-31T14:30:30.883Z,1.70
2019-01-31T14:32:59.498Z,1.70
2019-01-31T14:35:28.563Z,1.70
2019-01-31T14:37:56.986Z,1.50
2019-01-31T14:40:25.947Z,1.30
2019-01-31T14:42:54.602Z,1.20
2019-01-31T14:45:23.035Z,1.00
2019-01-31T14:47:51.454Z,0.90
2019-01-31T14:50:25.975Z,0.80
2019-01-31T14:52:56.902Z,0.70
2019-01-31T14:55:24.598Z,0.70
2019-01-31T14:57:53.291Z,0.60
2019-01-31T15:00:24.319Z,0.50
2019-01-31T15:02:52.735Z,0.40
2019-01-31T15:05:21.167Z,0.30
2019-01-31T15:07:49.594Z,0.20
2019-01-31T15:10:20.567Z,0.10
2019-01-31T15:12:49.047Z,0.00
2019-01-31T15:15:17.754Z,-0.20
2019-01-31T15:17:46.292Z,-0.20
2019-01-31T15:20:20.298Z,-0.30
2019-01-31T15:22:48.731Z,-0.40
2019-01-31T15:25:17.241Z,-0.40
2019-01-31T15:27:45.650Z,-0.50
2019-01-31T15:30:20.270Z,-0.60
2019-01-31T15:32:48.786Z,-0.60
2019-01-31T15:35:17.216Z,-0.50
2019-01-31T15:37:45.655Z,-0.60
2019-01-31T15:40:17.088Z,-0.60
2019-01-31T15:42:45.494Z,-0.50
2019-01-31T15:45:14.159Z,-0.60
2019-01-31T15:47:42.693Z,-0.60
2019-01-31T15:50:13.894Z,-0.60
2019-01-31T15:52:42.306Z,-0.60
2019-01-31T15:55:13.250Z,-0.60
2019-01-31T15:57:41.803Z,-0.60
2019-01-31T16:00:18.162Z,-0.70
2019-01-31T16:02:46.645Z,-0.70
2019-01-31T16:05:19.043Z,-0.70
2019-01-31T16:07:45.275Z,-0.70
2019-01-31T16:10:17.147Z,-0.80
2019-01-31T16:12:45.679Z,-0.90
2019-01-31T16:15:16.769Z,-1.00
2019-01-31T16:17:45.178Z,-1.10
2019-01-31T16:20:14.533Z,-1.10
2019-01-31T16:22:43.031Z,-1.20
2019-01-31T16:25:11.599Z,-1.20
2019-01-31T16:27:40.036Z,-1.30
2019-01-31T16:30:17.270Z,-1.30
2019-01-31T16:32:45.765Z,-1.30
2019-01-31T16:35:18.523Z,-1.20
2019-01-31T16:37:48.309Z,-1.30
2019-01-31T16:40:17.799Z,-1.30
2019-01-31T16:42:46.286Z,-1.30
2019-01-31T16:45:15.846Z,-1.40
2019-01-31T16:47:44.267Z,-1.50
2019-01-31T16:50:20.939Z,-1.60
2019-01-31T16:52:49.438Z,-1.70
2019-01-31T16:55:20.918Z,-1.80
2019-01-31T16:57:49.776Z,-1.90
2019-01-31T17:00:21.062Z,-1.90
2019-01-31T17:02:49.748Z,-2.00
2019-01-31T17:05:20.531Z,-2.00
2019-01-31T17:07:50.960Z,-2.10
2019-01-31T17:10:19.459Z,-2.20
2019-01-31T17:12:47.874Z,-2.20
2019-01-31T17:15:18.571Z,-2.30
2019-01-31T17:17:47.331Z,-2.30
2019-01-31T17:20:18.469Z,-2.40
2019-01-31T17:22:46.903Z,-2.50
2019-01-31T17:25:15.486Z,-2.50
2019-01-31T17:27:43.938Z,-2.60
2019-01-31T17:30:23.067Z,-2.60
2019-01-31T17:32:51.751Z,-2.60
2019-01-31T17:35:20.263Z,-2.60
2019-01-31T17:37:48.790Z,-2.60
2019-01-31T17:40:23.322Z,-2.50
2019-01-31T17:42:51.821Z,-2.40
2019-01-31T17:45:30.084Z,-2.30
2019-01-31T17:47:51.262Z,-2.30
2019-01-31T17:50:19.677Z,-2.30
2019-01-31T17:52:48.093Z,-2.30
2019-01-31T17:55:21.899Z,-2.20
2019-01-31T17:57:50.312Z,-2.20
2019-01-31T18:00:29.219Z,-2.20
2019-01-31T18:02:57.642Z,-2.20
2019-01-31T18:05:26.079Z,-2.20
2019-01-31T18:07:54.672Z,-2.20
2019-01-31T18:10:23.602Z,-2.10
2019-01-31T18:12:52.120Z,-2.10
2019-01-31T18:15:20.523Z,-2.10
2019-01-31T18:17:48.950Z,-2.00
2019-01-31T18:20:19.710Z,-1.90
2019-01-31T18:22:48.331Z,-1.90
2019-01-31T18:25:16.820Z,-1.90
2019-01-31T18:27:45.231Z,-2.00
2019-01-31T18:30:22.260Z,-2.00
2019-01-31T18:32:50.708Z,-2.10
2019-01-31T18:35:19.194Z,-2.10
2019-01-31T18:37:47.758Z,-2.10
2019-01-31T18:40:19.488Z,-2.10
2019-01-31T18:42:47.930Z,-2.00
2019-01-31T18:45:19.282Z,-2.00
2019-01-31T18:47:47.697Z,-1.90
2019-01-31T18:50:19.066Z,-1.90
2019-01-31T18:52:47.555Z,-1.80
2019-01-31T18:55:16.047Z,-1.80
2019-01-31T18:57:44.518Z,-1.70
2019-01-31T19:00:16.100Z,-1.60
2019-01-31T19:02:44.636Z,-1.50
2019-01-31T19:05:13.071Z,-1.50
2019-01-31T19:07:41.494Z,-1.40
2019-01-31T19:10:11.163Z,-1.40
2019-01-31T19:12:39.918Z,-1.30
2019-01-31T19:15:14.315Z,-1.30
2019-01-31T19:17:42.814Z,-1.20
2019-01-31T19:20:17.216Z,-1.20
2019-01-31T19:22:46.300Z,-1.20
2019-01-31T19:25:15.093Z,-1.10
2019-01-31T19:27:43.506Z,-1.10
2019-01-31T19:30:15.001Z,-1.10
2019-01-31T19:32:43.417Z,-1.00
2019-01-31T19:35:11.912Z,-1.00
2019-01-31T19:37:40.425Z,-1.00
2019-01-31T19:40:11.961Z,-1.00
2019-01-31T19:42:40.403Z,-1.00
2019-01-31T19:45:11.958Z,-1.00
2019-01-31T19:47:40.375Z,-0.90
2019-01-31T19:50:10.017Z,-0.90
2019-01-31T19:52:38.519Z,-0.90
2019-01-31T19:55:07.010Z,-0.90
2019-01-31T19:57:35.439Z,-0.90
2019-01-31T20:00:05.740Z,-0.90
2019-01-31T20:02:34.173Z,-0.80
2019-01-31T20:05:02.588Z,-0.80
2019-01-31T20:07:31.031Z,-0.80
2019-01-31T20:09:59.613Z,-0.90
2019-01-31T20:12:28.030Z,-0.90
2019-01-31T20:14:56.476Z,-0.90
2019-01-31T20:17:24.882Z,-0.90
2019-01-31T20:19:53.370Z,-0.80
2019-01-31T20:22:21.906Z,-0.80
2019-01-31T20:24:50.363Z,-0.70
2019-01-31T20:27:18.865Z,-0.60
2019-01-31T20:29:47.303Z,-0.50
2019-01-31T20:32:15.721Z,-0.50
2019-01-31T20:34:44.138Z,-0.40
2019-01-31T20:37:12.563Z,-0.30
2019-01-31T20:39:40.968Z,-0.30
2019-01-31T20:42:09.416Z,-0.30
2019-01-31T20:44:37.838Z,-0.20
2019-01-31T20:47:06.262Z,-0.20
2019-01-31T20:49:34.686Z,-0.20
2019-01-31T20:52:03.123Z,-0.20
2019-01-31T20:54:31.527Z,-0.20
2019-01-31T20:57:00.030Z,-0.20
2019-01-31T20:59:28.606Z,-0.10
2019-01-31T21:01:57.065Z,-0.10
2019-01-31T21:04:25.483Z,-0.10
2019-01-31T21:06:53.899Z,-0.10
2019-01-31T21:09:22.306Z,-0.10
2019-01-31T21:11:50.794Z,-0.10
2019-01-31T21:14:19.297Z,-0.10
2019-01-31T21:16:51.689Z,-0.10
2019-01-31T21:19:17.896Z,-0.10
2019-01-31T21:21:46.501Z,-0.10
2019-01-31T21:24:14.973Z,-0.10
2019-01-31T21:26:43.435Z,-0.10
2019-01-31T21:29:11.865Z,-0.20
2019-01-31T21:31:40.277Z,-0.10
2019-01-31T21:34:08.687Z,-0.10
2019-01-31T21:36:37.083Z,-0.10
2019-01-31T21:39:07.767Z,-0.10
2019-01-31T21:41:36.257Z,-0.10
2019-01-31T21:44:04.742Z,-0.10
2019-01-31T21:46:33.351Z,-0.10
2019-01-31T21:49:01.763Z,-0.10
2019-01-31T21:51:30.189Z,-0.10
2019-01-31T21:53:58.618Z,-0.10
2019-01-31T21:56:27.086Z,-0.10
2019-01-31T21:58:55.526Z,-0.10
2019-01-31T22:01:23.943Z,-0.10
2019-01-31T22:03:52.450Z,-0.10
2019-01-31T22:06:22.735Z,-0.10
2019-01-31T22:08:51.011Z,-0.10
2019-01-31T22:11:19.694Z,-0.10
2019-01-31T22:13:48.142Z,-0.10
2019-01-31T22:16:16.552Z,-0.10
2019-01-31T22:18:44.979Z,-0.10
2019-01-31T22:21:13.445Z,-0.10
2019-01-31T22:23:41.919Z,-0.10
2019-01-31T22:26:10.328Z,-0.10
2019-01-31T22:28:38.761Z,-0.10
2019-01-31T22:31:07.283Z,-0.10
2019-01-31T22:33:35.692Z,-0.10
2019-01-31T22:36:04.099Z,-0.10
2019-01-31T22:38:32.533Z,-0.10
2019-01-31T22:41:00.935Z,-0.10
2019-01-31T22:43:29.358Z,-0.10
2019-01-31T22:45:57.779Z,-0.10
2019-01-31T22:48:26.202Z,-0.10
2019-01-31T22:50:54.641Z,-0.10
2019-01-31T22:53:23.062Z,-0.10
2019-01-31T22:55:51.507Z,-0.10
2019-01-31T22:58:19.927Z,-0.10
2019-01-31T23:01:08.002Z,-0.10
2019-01-31T23:03:36.580Z,-0.10
2019-01-31T23:06:05.742Z,-0.10
2019-01-31T23:08:34.194Z,0.00
2019-01-31T23:11:08.538Z,0.00
2019-01-31T23:13:37.040Z,0.00
2019-01-31T23:16:05.822Z,0.00
2019-01-31T23:18:34.262Z,0.00
2019-01-31T23:21:02.694Z,0.10
2019-01-31T23:23:31.112Z,0.10
2019-01-31T23:25:59.526Z,0.10
2019-01-31T23:28:27.959Z,0.10
2019-01-31T23:30:56.449Z,0.10
2019-01-31T23:33:24.885Z,0.10
2019-01-31T23:35:53.311Z,0.10
2019-01-31T23:38:21.726Z,0.20
2019-01-31T23:40:50.131Z,0.20
2019-01-31T23:43:18.588Z,0.20
2019-01-31T23:45:47.076Z,0.20
2019-01-31T23:48:15.513Z,0.20
2019-01-31T23:50:43.925Z,0.20
2019-01-31T23:53:12.341Z,0.20
2019-01-31T23:55:40.844Z,0.20
2019-01-31T23:58:09.246Z,0.20
